sensor_id;sensor_type;location;lat;lon;timestamp;P1;durP1;ratioP1;P2;durP2;ratioP2
51146;SDS011;37207;53.060;18.726;2023-03-24T00:02:05;49.20;;;29.10;;
51146;SDS011;37207;53.060;18.726;2023-03-24T00:04:32;31.70;;;22.80;;
51146;SDS011;37207;53.060;18.726;2023-03-24T00:06:59;29.60;;;22.10;;
51146;SDS011;37207;53.060;18.726;2023-03-24T00:09:29;20.90;;;18.70;;
51146;SDS011;37207;53.060;18.726;2023-03-24T00:11:56;21.40;;;18.50;;
51146;SDS011;37207;53.060;18.726;2023-03-24T00:14:23;24.20;;;19.30;;
51146;SDS011;37207;53.060;18.726;2023-03-24T00:16:49;53.10;;;28.00;;
51146;SDS011;37207;53.060;18.726;2023-03-24T00:19:15;19.80;;;16.40;;
51146;SDS011;37207;53.060;18.726;2023-03-24T00:21:42;20.40;;;15.70;;
51146;SDS011;37207;53.060;18.726;2023-03-24T00:24:09;22.30;;;19.40;;
51146;SDS011;37207;53.060;18.726;2023-03-24T00:26:37;15.40;;;13.20;;
51146;SDS011;37207;53.060;18.726;2023-03-24T00:29:06;14.50;;;12.60;;
51146;SDS011;37207;53.060;18.726;2023-03-24T00:31:34;16.20;;;14.00;;
51146;SDS011;37207;53.060;18.726;2023-03-24T00:34:08;25.20;;;16.00;;
51146;SDS011;37207;53.060;18.726;2023-03-24T00:36:35;24.60;;;17.40;;
51146;SDS011;37207;53.060;18.726;2023-03-24T00:39:02;24.20;;;15.90;;
51146;SDS011;37207;53.060;18.726;2023-03-24T00:41:29;20.60;;;16.10;;
51146;SDS011;37207;53.060;18.726;2023-03-24T00:43:57;24.40;;;18.30;;
51146;SDS011;37207;53.060;18.726;2023-03-24T00:46:24;29.10;;;20.00;;
51146;SDS011;37207;53.060;18.726;2023-03-24T00:51:27;27.30;;;17.70;;
51146;SDS011;37207;53.060;18.726;2023-03-24T00:53:55;22.00;;;17.60;;
51146;SDS011;37207;53.060;18.726;2023-03-24T00:56:24;22.60;;;18.40;;
51146;SDS011;37207;53.060;18.726;2023-03-24T00:58:52;40.00;;;25.10;;
51146;SDS011;37207;53.060;18.726;2023-03-24T01:01:19;53.90;;;27.50;;
51146;SDS011;37207;53.060;18.726;2023-03-24T01:03:47;18.20;;;15.00;;
51146;SDS011;37207;53.060;18.726;2023-03-24T01:06:16;22.70;;;14.20;;
51146;SDS011;37207;53.060;18.726;2023-03-24T01:08:43;15.60;;;12.70;;
51146;SDS011;37207;53.060;18.726;2023-03-24T01:11:10;20.30;;;13.90;;
51146;SDS011;37207;53.060;18.726;2023-03-24T01:13:38;29.60;;;17.00;;
51146;SDS011;37207;53.060;18.726;2023-03-24T01:16:06;26.90;;;17.90;;
51146;SDS011;37207;53.060;18.726;2023-03-24T01:18:32;31.80;;;19.50;;
51146;SDS011;37207;53.060;18.726;2023-03-24T01:20:59;27.90;;;18.50;;
51146;SDS011;37207;53.060;18.726;2023-03-24T01:23:25;16.20;;;13.20;;
51146;SDS011;37207;53.060;18.726;2023-03-24T01:25:52;13.80;;;11.20;;
51146;SDS011;37207;53.060;18.726;2023-03-24T01:28:20;16.20;;;11.10;;
51146;SDS011;37207;53.060;18.726;2023-03-24T01:30:52;12.50;;;11.30;;
51146;SDS011;37207;53.060;18.726;2023-03-24T01:33:19;27.00;;;17.30;;
51146;SDS011;37207;53.060;18.726;2023-03-24T01:35:45;93.30;;;39.80;;
51146;SDS011;37207;53.060;18.726;2023-03-24T01:38:12;29.60;;;19.70;;
51146;SDS011;37207;53.060;18.726;2023-03-24T01:40:41;14.40;;;11.30;;
51146;SDS011;37207;53.060;18.726;2023-03-24T01:43:18;15.70;;;12.90;;
51146;SDS011;37207;53.060;18.726;2023-03-24T01:46:11;13.00;;;11.30;;
51146;SDS011;37207;53.060;18.726;2023-03-24T01:51:42;21.90;;;15.80;;
51146;SDS011;37207;53.060;18.726;2023-03-24T01:54:19;16.90;;;13.90;;
51146;SDS011;37207;53.060;18.726;2023-03-24T01:59:39;25.40;;;15.40;;
51146;SDS011;37207;53.060;18.726;2023-03-24T02:02:18;17.80;;;14.50;;
51146;SDS011;37207;53.060;18.726;2023-03-24T02:04:53;21.30;;;15.90;;
51146;SDS011;37207;53.060;18.726;2023-03-24T02:10:02;20.80;;;16.90;;
51146;SDS011;37207;53.060;18.726;2023-03-24T02:12:31;25.10;;;17.90;;
51146;SDS011;37207;53.060;18.726;2023-03-24T02:14:58;22.80;;;16.60;;
51146;SDS011;37207;53.060;18.726;2023-03-24T02:20:27;16.80;;;15.30;;
51146;SDS011;37207;53.060;18.726;2023-03-24T02:28:50;18.50;;;14.70;;
51146;SDS011;37207;53.060;18.726;2023-03-24T02:45:38;17.00;;;15.40;;
51146;SDS011;37207;53.060;18.726;2023-03-24T02:48:22;16.30;;;14.70;;
51146;SDS011;37207;53.060;18.726;2023-03-24T02:53:53;18.50;;;15.00;;
51146;SDS011;37207;53.060;18.726;2023-03-24T02:56:38;15.40;;;14.00;;
51146;SDS011;37207;53.060;18.726;2023-03-24T02:59:26;16.40;;;14.70;;
51146;SDS011;37207;53.060;18.726;2023-03-24T03:02:44;16.30;;;14.80;;
51146;SDS011;37207;53.060;18.726;2023-03-24T03:05:18;16.10;;;14.40;;
51146;SDS011;37207;53.060;18.726;2023-03-24T03:07:52;16.10;;;14.60;;
51146;SDS011;37207;53.060;18.726;2023-03-24T03:10:24;15.70;;;14.10;;
51146;SDS011;37207;53.060;18.726;2023-03-24T03:12:55;15.70;;;14.10;;
51146;SDS011;37207;53.060;18.726;2023-03-24T03:15:25;15.10;;;13.70;;
51146;SDS011;37207;53.060;18.726;2023-03-24T03:17:59;15.50;;;13.60;;
51146;SDS011;37207;53.060;18.726;2023-03-24T03:20:33;15.50;;;14.10;;
51146;SDS011;37207;53.060;18.726;2023-03-24T03:23:10;15.20;;;13.90;;
51146;SDS011;37207;53.060;18.726;2023-03-24T03:25:40;14.80;;;13.70;;
51146;SDS011;37207;53.060;18.726;2023-03-24T03:28:15;15.10;;;13.30;;
51146;SDS011;37207;53.060;18.726;2023-03-24T03:30:49;16.20;;;14.50;;
51146;SDS011;37207;53.060;18.726;2023-03-24T03:33:20;15.00;;;13.50;;
51146;SDS011;37207;53.060;18.726;2023-03-24T03:39:02;14.50;;;13.30;;
51146;SDS011;37207;53.060;18.726;2023-03-24T03:41:41;14.60;;;13.30;;
51146;SDS011;37207;53.060;18.726;2023-03-24T03:44:07;15.50;;;13.90;;
51146;SDS011;37207;53.060;18.726;2023-03-24T03:46:35;15.60;;;14.00;;
51146;SDS011;37207;53.060;18.726;2023-03-24T03:49:02;15.30;;;14.00;;
51146;SDS011;37207;53.060;18.726;2023-03-24T03:51:29;15.20;;;13.60;;
51146;SDS011;37207;53.060;18.726;2023-03-24T03:53:57;14.80;;;13.50;;
51146;SDS011;37207;53.060;18.726;2023-03-24T03:56:26;14.00;;;12.70;;
51146;SDS011;37207;53.060;18.726;2023-03-24T03:59:31;14.70;;;13.30;;
51146;SDS011;37207;53.060;18.726;2023-03-24T04:08:10;14.90;;;13.70;;
51146;SDS011;37207;53.060;18.726;2023-03-24T04:11:09;15.10;;;13.50;;
51146;SDS011;37207;53.060;18.726;2023-03-24T04:22:51;15.50;;;14.20;;
51146;SDS011;37207;53.060;18.726;2023-03-24T04:25:32;15.50;;;14.10;;
51146;SDS011;37207;53.060;18.726;2023-03-24T04:28:20;15.20;;;13.70;;
51146;SDS011;37207;53.060;18.726;2023-03-24T04:33:29;14.70;;;13.50;;
51146;SDS011;37207;53.060;18.726;2023-03-24T04:39:17;14.70;;;13.40;;
51146;SDS011;37207;53.060;18.726;2023-03-24T04:41:50;15.90;;;14.50;;
51146;SDS011;37207;53.060;18.726;2023-03-24T04:44:23;18.70;;;16.90;;
51146;SDS011;37207;53.060;18.726;2023-03-24T04:47:06;36.10;;;21.70;;
51146;SDS011;37207;53.060;18.726;2023-03-24T04:49:37;24.30;;;16.60;;
51146;SDS011;37207;53.060;18.726;2023-03-24T04:52:04;22.80;;;15.90;;
51146;SDS011;37207;53.060;18.726;2023-03-24T04:54:33;15.60;;;14.10;;
51146;SDS011;37207;53.060;18.726;2023-03-24T04:57:03;14.90;;;13.40;;
51146;SDS011;37207;53.060;18.726;2023-03-24T04:59:43;19.40;;;13.70;;
51146;SDS011;37207;53.060;18.726;2023-03-24T05:02:09;14.00;;;12.90;;
51146;SDS011;37207;53.060;18.726;2023-03-24T05:04:42;15.20;;;13.60;;
51146;SDS011;37207;53.060;18.726;2023-03-24T05:07:21;17.40;;;15.80;;
51146;SDS011;37207;53.060;18.726;2023-03-24T05:09:48;16.00;;;14.40;;
51146;SDS011;37207;53.060;18.726;2023-03-24T05:12:14;15.60;;;13.90;;
51146;SDS011;37207;53.060;18.726;2023-03-24T05:14:57;19.00;;;14.90;;
51146;SDS011;37207;53.060;18.726;2023-03-24T05:17:24;15.70;;;14.20;;
51146;SDS011;37207;53.060;18.726;2023-03-24T05:19:50;24.30;;;14.30;;
51146;SDS011;37207;53.060;18.726;2023-03-24T05:22:16;13.40;;;12.40;;
51146;SDS011;37207;53.060;18.726;2023-03-24T05:24:42;14.40;;;12.90;;
51146;SDS011;37207;53.060;18.726;2023-03-24T05:27:08;14.60;;;13.20;;
51146;SDS011;37207;53.060;18.726;2023-03-24T05:29:34;13.60;;;12.30;;
51146;SDS011;37207;53.060;18.726;2023-03-24T05:31:59;17.00;;;14.30;;
51146;SDS011;37207;53.060;18.726;2023-03-24T05:34:25;14.70;;;13.10;;
51146;SDS011;37207;53.060;18.726;2023-03-24T05:37:05;14.00;;;12.70;;
51146;SDS011;37207;53.060;18.726;2023-03-24T05:39:34;11.70;;;10.80;;
51146;SDS011;37207;53.060;18.726;2023-03-24T05:42:25;13.80;;;11.90;;
51146;SDS011;37207;53.060;18.726;2023-03-24T05:44:51;12.70;;;11.60;;
51146;SDS011;37207;53.060;18.726;2023-03-24T05:47:23;12.30;;;11.30;;
51146;SDS011;37207;53.060;18.726;2023-03-24T05:49:50;12.30;;;11.30;;
51146;SDS011;37207;53.060;18.726;2023-03-24T05:52:16;13.00;;;11.80;;
51146;SDS011;37207;53.060;18.726;2023-03-24T05:54:45;11.70;;;10.70;;
51146;SDS011;37207;53.060;18.726;2023-03-24T05:57:17;14.00;;;11.20;;
51146;SDS011;37207;53.060;18.726;2023-03-24T06:00:03;12.00;;;10.90;;
51146;SDS011;37207;53.060;18.726;2023-03-24T06:02:46;12.10;;;11.00;;
51146;SDS011;37207;53.060;18.726;2023-03-24T06:05:23;12.00;;;10.90;;
51146;SDS011;37207;53.060;18.726;2023-03-24T06:07:50;11.80;;;10.70;;
51146;SDS011;37207;53.060;18.726;2023-03-24T06:10:16;11.50;;;10.50;;
51146;SDS011;37207;53.060;18.726;2023-03-24T06:12:47;11.60;;;10.40;;
51146;SDS011;37207;53.060;18.726;2023-03-24T06:15:13;12.20;;;11.00;;
51146;SDS011;37207;53.060;18.726;2023-03-24T06:20:16;12.40;;;11.30;;
51146;SDS011;37207;53.060;18.726;2023-03-24T06:25:41;11.60;;;10.30;;
51146;SDS011;37207;53.060;18.726;2023-03-24T06:28:21;11.50;;;10.50;;
51146;SDS011;37207;53.060;18.726;2023-03-24T06:30:48;11.90;;;10.80;;
51146;SDS011;37207;53.060;18.726;2023-03-24T06:33:19;10.60;;;9.80;;
51146;SDS011;37207;53.060;18.726;2023-03-24T06:35:46;12.60;;;11.30;;
51146;SDS011;37207;53.060;18.726;2023-03-24T06:38:15;13.20;;;10.40;;
51146;SDS011;37207;53.060;18.726;2023-03-24T06:40:42;11.70;;;10.50;;
51146;SDS011;37207;53.060;18.726;2023-03-24T06:43:08;11.00;;;10.00;;
51146;SDS011;37207;53.060;18.726;2023-03-24T06:45:36;12.90;;;10.40;;
51146;SDS011;37207;53.060;18.726;2023-03-24T06:48:04;21.00;;;10.90;;
51146;SDS011;37207;53.060;18.726;2023-03-24T06:50:30;12.00;;;10.70;;
51146;SDS011;37207;53.060;18.726;2023-03-24T06:53:00;11.40;;;10.10;;
51146;SDS011;37207;53.060;18.726;2023-03-24T06:55:27;11.30;;;10.00;;
51146;SDS011;37207;53.060;18.726;2023-03-24T06:57:53;12.30;;;10.10;;
51146;SDS011;37207;53.060;18.726;2023-03-24T07:00:36;11.10;;;9.70;;
51146;SDS011;37207;53.060;18.726;2023-03-24T07:03:21;11.30;;;10.20;;
51146;SDS011;37207;53.060;18.726;2023-03-24T07:06:03;11.20;;;9.10;;
51146;SDS011;37207;53.060;18.726;2023-03-24T07:08:30;10.10;;;9.40;;
51146;SDS011;37207;53.060;18.726;2023-03-24T07:10:58;15.00;;;10.40;;
51146;SDS011;37207;53.060;18.726;2023-03-24T07:13:24;11.00;;;10.00;;
51146;SDS011;37207;53.060;18.726;2023-03-24T07:15:51;10.00;;;8.90;;
51146;SDS011;37207;53.060;18.726;2023-03-24T07:18:16;9.90;;;9.10;;
51146;SDS011;37207;53.060;18.726;2023-03-24T07:20:45;11.60;;;9.50;;
51146;SDS011;37207;53.060;18.726;2023-03-24T07:23:13;10.20;;;9.30;;
51146;SDS011;37207;53.060;18.726;2023-03-24T07:25:55;11.60;;;9.00;;
51146;SDS011;37207;53.060;18.726;2023-03-24T07:28:51;12.90;;;9.50;;
51146;SDS011;37207;53.060;18.726;2023-03-24T07:31:36;9.90;;;9.00;;
51146;SDS011;37207;53.060;18.726;2023-03-24T07:34:06;12.20;;;8.20;;
51146;SDS011;37207;53.060;18.726;2023-03-24T07:36:34;9.80;;;8.80;;
51146;SDS011;37207;53.060;18.726;2023-03-24T07:39:01;9.80;;;8.90;;
51146;SDS011;37207;53.060;18.726;2023-03-24T07:41:31;9.20;;;8.40;;
51146;SDS011;37207;53.060;18.726;2023-03-24T07:44:01;10.60;;;8.70;;
51146;SDS011;37207;53.060;18.726;2023-03-24T07:46:33;9.80;;;9.00;;
51146;SDS011;37207;53.060;18.726;2023-03-24T07:48:59;9.20;;;8.40;;
51146;SDS011;37207;53.060;18.726;2023-03-24T07:51:27;9.30;;;8.40;;
51146;SDS011;37207;53.060;18.726;2023-03-24T07:54:12;9.90;;;9.00;;
51146;SDS011;37207;53.060;18.726;2023-03-24T07:56:42;10.90;;;9.90;;
51146;SDS011;37207;53.060;18.726;2023-03-24T07:59:09;10.30;;;9.50;;
51146;SDS011;37207;53.060;18.726;2023-03-24T08:01:50;10.10;;;9.20;;
51146;SDS011;37207;53.060;18.726;2023-03-24T08:04:19;10.50;;;9.50;;
51146;SDS011;37207;53.060;18.726;2023-03-24T08:07:00;10.60;;;9.70;;
51146;SDS011;37207;53.060;18.726;2023-03-24T08:09:28;10.80;;;10.00;;
51146;SDS011;37207;53.060;18.726;2023-03-24T08:11:53;10.30;;;9.50;;
51146;SDS011;37207;53.060;18.726;2023-03-24T08:14:19;12.00;;;10.70;;
51146;SDS011;37207;53.060;18.726;2023-03-24T08:16:45;13.10;;;10.00;;
51146;SDS011;37207;53.060;18.726;2023-03-24T08:19:11;12.50;;;11.10;;
51146;SDS011;37207;53.060;18.726;2023-03-24T08:21:37;12.70;;;11.40;;
51146;SDS011;37207;53.060;18.726;2023-03-24T08:24:03;11.50;;;10.50;;
51146;SDS011;37207;53.060;18.726;2023-03-24T08:26:29;12.20;;;11.00;;
51146;SDS011;37207;53.060;18.726;2023-03-24T08:28:55;12.80;;;10.80;;
51146;SDS011;37207;53.060;18.726;2023-03-24T08:31:21;11.20;;;10.30;;
51146;SDS011;37207;53.060;18.726;2023-03-24T08:33:47;10.90;;;9.90;;
51146;SDS011;37207;53.060;18.726;2023-03-24T08:36:13;14.30;;;10.60;;
51146;SDS011;37207;53.060;18.726;2023-03-24T08:38:38;11.80;;;10.70;;
51146;SDS011;37207;53.060;18.726;2023-03-24T08:41:05;14.10;;;10.20;;
51146;SDS011;37207;53.060;18.726;2023-03-24T08:43:32;13.50;;;9.90;;
51146;SDS011;37207;53.060;18.726;2023-03-24T08:46:00;11.60;;;10.70;;
51146;SDS011;37207;53.060;18.726;2023-03-24T08:48:27;11.60;;;10.80;;
51146;SDS011;37207;53.060;18.726;2023-03-24T08:50:54;11.40;;;10.50;;
51146;SDS011;37207;53.060;18.726;2023-03-24T08:53:21;12.30;;;11.20;;
51146;SDS011;37207;53.060;18.726;2023-03-24T08:55:47;12.20;;;11.30;;
51146;SDS011;37207;53.060;18.726;2023-03-24T08:58:16;13.50;;;12.00;;
51146;SDS011;37207;53.060;18.726;2023-03-24T09:00:45;13.70;;;12.40;;
51146;SDS011;37207;53.060;18.726;2023-03-24T09:03:12;12.90;;;12.00;;
51146;SDS011;37207;53.060;18.726;2023-03-24T09:05:43;12.50;;;11.50;;
51146;SDS011;37207;53.060;18.726;2023-03-24T09:08:11;12.50;;;11.30;;
51146;SDS011;37207;53.060;18.726;2023-03-24T09:10:39;14.30;;;11.80;;
51146;SDS011;37207;53.060;18.726;2023-03-24T09:13:07;11.80;;;10.90;;
51146;SDS011;37207;53.060;18.726;2023-03-24T09:15:34;12.50;;;11.00;;
51146;SDS011;37207;53.060;18.726;2023-03-24T09:18:00;12.40;;;11.20;;
51146;SDS011;37207;53.060;18.726;2023-03-24T09:20:27;11.50;;;10.60;;
51146;SDS011;37207;53.060;18.726;2023-03-24T09:22:53;14.60;;;10.50;;
51146;SDS011;37207;53.060;18.726;2023-03-24T09:25:20;11.30;;;9.80;;
51146;SDS011;37207;53.060;18.726;2023-03-24T09:27:47;9.90;;;9.00;;
51146;SDS011;37207;53.060;18.726;2023-03-24T09:30:13;13.20;;;10.50;;
51146;SDS011;37207;53.060;18.726;2023-03-24T09:32:41;10.70;;;9.60;;
51146;SDS011;37207;53.060;18.726;2023-03-24T09:35:07;10.70;;;9.80;;
51146;SDS011;37207;53.060;18.726;2023-03-24T09:37:33;9.70;;;8.70;;
51146;SDS011;37207;53.060;18.726;2023-03-24T09:40:00;9.40;;;8.60;;
51146;SDS011;37207;53.060;18.726;2023-03-24T09:42:49;8.80;;;8.00;;
51146;SDS011;37207;53.060;18.726;2023-03-24T09:45:17;10.50;;;8.50;;
51146;SDS011;37207;53.060;18.726;2023-03-24T09:48:07;8.90;;;8.20;;
51146;SDS011;37207;53.060;18.726;2023-03-24T09:56:32;8.50;;;7.60;;
51146;SDS011;37207;53.060;18.726;2023-03-24T09:59:06;6.30;;;5.80;;
51146;SDS011;37207;53.060;18.726;2023-03-24T10:01:38;7.40;;;6.70;;
51146;SDS011;37207;53.060;18.726;2023-03-24T10:04:05;6.50;;;5.90;;
51146;SDS011;37207;53.060;18.726;2023-03-24T10:06:40;12.40;;;10.50;;
51146;SDS011;37207;53.060;18.726;2023-03-24T10:09:23;9.50;;;8.50;;
51146;SDS011;37207;53.060;18.726;2023-03-24T10:17:24;6.50;;;5.00;;
51146;SDS011;37207;53.060;18.726;2023-03-24T10:20:01;7.00;;;6.50;;
51146;SDS011;37207;53.060;18.726;2023-03-24T10:22:39;17.10;;;15.40;;
51146;SDS011;37207;53.060;18.726;2023-03-24T10:28:01;16.00;;;13.00;;
51146;SDS011;37207;53.060;18.726;2023-03-24T10:30:38;8.20;;;5.20;;
51146;SDS011;37207;53.060;18.726;2023-03-24T10:33:11;6.30;;;5.70;;
51146;SDS011;37207;53.060;18.726;2023-03-24T10:35:39;6.70;;;4.70;;
51146;SDS011;37207;53.060;18.726;2023-03-24T10:38:18;5.30;;;4.90;;
51146;SDS011;37207;53.060;18.726;2023-03-24T10:40:47;12.70;;;7.50;;
51146;SDS011;37207;53.060;18.726;2023-03-24T10:43:16;5.30;;;4.40;;
51146;SDS011;37207;53.060;18.726;2023-03-24T10:45:45;7.40;;;3.10;;
51146;SDS011;37207;53.060;18.726;2023-03-24T10:48:14;17.50;;;5.40;;
51146;SDS011;37207;53.060;18.726;2023-03-24T10:51:11;5.60;;;3.20;;
51146;SDS011;37207;53.060;18.726;2023-03-24T10:53:39;6.50;;;6.10;;
51146;SDS011;37207;53.060;18.726;2023-03-24T10:56:06;8.40;;;4.90;;
51146;SDS011;37207;53.060;18.726;2023-03-24T10:58:39;5.00;;;4.20;;
51146;SDS011;37207;53.060;18.726;2023-03-24T11:01:19;7.60;;;6.90;;
51146;SDS011;37207;53.060;18.726;2023-03-24T11:03:58;4.20;;;3.80;;
51146;SDS011;37207;53.060;18.726;2023-03-24T11:06:28;5.30;;;3.80;;
51146;SDS011;37207;53.060;18.726;2023-03-24T11:09:17;4.10;;;3.80;;
51146;SDS011;37207;53.060;18.726;2023-03-24T11:11:46;3.10;;;2.60;;
51146;SDS011;37207;53.060;18.726;2023-03-24T11:14:22;3.30;;;3.00;;
51146;SDS011;37207;53.060;18.726;2023-03-24T11:16:51;4.20;;;2.60;;
51146;SDS011;37207;53.060;18.726;2023-03-24T11:19:20;3.40;;;3.10;;
51146;SDS011;37207;53.060;18.726;2023-03-24T11:21:48;2.50;;;2.30;;
51146;SDS011;37207;53.060;18.726;2023-03-24T11:24:17;8.10;;;3.70;;
51146;SDS011;37207;53.060;18.726;2023-03-24T11:26:55;5.20;;;3.10;;
51146;SDS011;37207;53.060;18.726;2023-03-24T11:29:25;12.70;;;6.90;;
51146;SDS011;37207;53.060;18.726;2023-03-24T11:31:56;3.60;;;2.80;;
51146;SDS011;37207;53.060;18.726;2023-03-24T11:34:27;11.30;;;3.80;;
51146;SDS011;37207;53.060;18.726;2023-03-24T11:37:13;18.00;;;7.50;;
51146;SDS011;37207;53.060;18.726;2023-03-24T11:39:44;18.00;;;8.30;;
51146;SDS011;37207;53.060;18.726;2023-03-24T11:42:31;27.70;;;9.60;;
51146;SDS011;37207;53.060;18.726;2023-03-24T11:44:57;8.30;;;3.50;;
51146;SDS011;37207;53.060;18.726;2023-03-24T11:47:30;7.80;;;4.40;;
51146;SDS011;37207;53.060;18.726;2023-03-24T11:55:35;4.50;;;3.30;;
51146;SDS011;37207;53.060;18.726;2023-03-24T11:58:32;3.90;;;3.50;;
51146;SDS011;37207;53.060;18.726;2023-03-24T12:10:00;8.00;;;3.50;;
51146;SDS011;37207;53.060;18.726;2023-03-24T12:18:04;6.30;;;3.20;;
51146;SDS011;37207;53.060;18.726;2023-03-24T12:20:41;10.30;;;5.30;;
51146;SDS011;37207;53.060;18.726;2023-03-24T12:23:38;6.40;;;3.80;;
51146;SDS011;37207;53.060;18.726;2023-03-24T12:26:17;12.90;;;5.70;;
51146;SDS011;37207;53.060;18.726;2023-03-24T12:34:43;7.60;;;5.40;;
51146;SDS011;37207;53.060;18.726;2023-03-24T12:40:25;5.30;;;4.40;;
51146;SDS011;37207;53.060;18.726;2023-03-24T12:43:18;8.70;;;5.90;;
51146;SDS011;37207;53.060;18.726;2023-03-24T12:45:55;12.80;;;8.80;;
51146;SDS011;37207;53.060;18.726;2023-03-24T12:48:33;10.60;;;6.00;;
51146;SDS011;37207;53.060;18.726;2023-03-24T12:57:10;16.60;;;12.40;;
51146;SDS011;37207;53.060;18.726;2023-03-24T12:59:49;7.90;;;6.00;;
51146;SDS011;37207;53.060;18.726;2023-03-24T13:02:29;6.60;;;5.30;;
51146;SDS011;37207;53.060;18.726;2023-03-24T13:05:02;5.70;;;4.90;;
51146;SDS011;37207;53.060;18.726;2023-03-24T13:07:34;9.00;;;7.60;;
51146;SDS011;37207;53.060;18.726;2023-03-24T13:10:15;9.60;;;8.10;;
51146;SDS011;37207;53.060;18.726;2023-03-24T13:12:59;5.90;;;5.50;;
51146;SDS011;37207;53.060;18.726;2023-03-24T13:15:33;7.80;;;6.70;;
51146;SDS011;37207;53.060;18.726;2023-03-24T13:20:45;10.30;;;9.40;;
51146;SDS011;37207;53.060;18.726;2023-03-24T13:28:56;32.90;;;22.80;;
51146;SDS011;37207;53.060;18.726;2023-03-24T13:31:30;14.70;;;13.20;;
51146;SDS011;37207;53.060;18.726;2023-03-24T13:34:01;15.90;;;14.40;;
51146;SDS011;37207;53.060;18.726;2023-03-24T13:36:38;10.20;;;9.40;;
51146;SDS011;37207;53.060;18.726;2023-03-24T13:39:12;8.00;;;7.40;;
51146;SDS011;37207;53.060;18.726;2023-03-24T13:41:45;7.00;;;6.50;;
51146;SDS011;37207;53.060;18.726;2023-03-24T13:46:59;6.80;;;6.40;;
51146;SDS011;37207;53.060;18.726;2023-03-24T13:49:34;9.20;;;6.40;;
51146;SDS011;37207;53.060;18.726;2023-03-24T13:52:01;10.60;;;6.00;;
51146;SDS011;37207;53.060;18.726;2023-03-24T13:54:29;6.80;;;6.10;;
51146;SDS011;37207;53.060;18.726;2023-03-24T13:57:00;7.10;;;6.10;;
51146;SDS011;37207;53.060;18.726;2023-03-24T13:59:29;7.00;;;6.40;;
51146;SDS011;37207;53.060;18.726;2023-03-24T14:05:03;4.90;;;4.60;;
51146;SDS011;37207;53.060;18.726;2023-03-24T14:13:02;4.70;;;4.40;;
51146;SDS011;37207;53.060;18.726;2023-03-24T14:15:33;8.70;;;6.30;;
51146;SDS011;37207;53.060;18.726;2023-03-24T14:23:30;5.50;;;5.10;;
51146;SDS011;37207;53.060;18.726;2023-03-24T14:34:01;17.50;;;15.60;;
51146;SDS011;37207;53.060;18.726;2023-03-24T14:36:34;9.90;;;9.20;;
51146;SDS011;37207;53.060;18.726;2023-03-24T14:39:17;9.80;;;7.30;;
51146;SDS011;37207;53.060;18.726;2023-03-24T14:41:52;10.70;;;7.10;;
51146;SDS011;37207;53.060;18.726;2023-03-24T14:47:22;8.00;;;5.50;;
51146;SDS011;37207;53.060;18.726;2023-03-24T14:49:54;6.40;;;5.90;;
51146;SDS011;37207;53.060;18.726;2023-03-24T14:55:08;11.50;;;10.10;;
51146;SDS011;37207;53.060;18.726;2023-03-24T14:57:40;13.80;;;10.10;;
51146;SDS011;37207;53.060;18.726;2023-03-24T15:00:24;10.30;;;9.20;;
51146;SDS011;37207;53.060;18.726;2023-03-24T15:03:07;12.10;;;10.70;;
51146;SDS011;37207;53.060;18.726;2023-03-24T15:05:42;49.20;;;26.10;;
51146;SDS011;37207;53.060;18.726;2023-03-24T15:10:47;73.80;;;40.80;;
51146;SDS011;37207;53.060;18.726;2023-03-24T15:13:50;33.90;;;20.90;;
51146;SDS011;37207;53.060;18.726;2023-03-24T15:16:24;17.70;;;15.90;;
51146;SDS011;37207;53.060;18.726;2023-03-24T15:18:53;12.20;;;11.30;;
51146;SDS011;37207;53.060;18.726;2023-03-24T15:21:22;12.60;;;8.70;;
51146;SDS011;37207;53.060;18.726;2023-03-24T15:23:51;9.30;;;8.50;;
51146;SDS011;37207;53.060;18.726;2023-03-24T15:26:18;10.10;;;7.00;;
51146;SDS011;37207;53.060;18.726;2023-03-24T15:28:52;10.90;;;8.40;;
51146;SDS011;37207;53.060;18.726;2023-03-24T15:31:21;10.10;;;9.10;;
51146;SDS011;37207;53.060;18.726;2023-03-24T15:33:49;7.70;;;7.10;;
51146;SDS011;37207;53.060;18.726;2023-03-24T15:36:19;9.60;;;9.00;;
51146;SDS011;37207;53.060;18.726;2023-03-24T15:38:48;11.80;;;10.90;;
51146;SDS011;37207;53.060;18.726;2023-03-24T15:41:17;9.80;;;9.10;;
51146;SDS011;37207;53.060;18.726;2023-03-24T15:43:50;9.50;;;8.40;;
51146;SDS011;37207;53.060;18.726;2023-03-24T15:46:27;13.20;;;11.90;;
51146;SDS011;37207;53.060;18.726;2023-03-24T15:48:55;19.50;;;17.40;;
51146;SDS011;37207;53.060;18.726;2023-03-24T15:54:28;12.70;;;11.30;;
51146;SDS011;37207;53.060;18.726;2023-03-24T15:57:00;21.70;;;17.00;;
51146;SDS011;37207;53.060;18.726;2023-03-24T15:59:34;28.20;;;22.60;;
51146;SDS011;37207;53.060;18.726;2023-03-24T16:02:06;20.40;;;18.50;;
51146;SDS011;37207;53.060;18.726;2023-03-24T16:04:42;24.90;;;21.00;;
51146;SDS011;37207;53.060;18.726;2023-03-24T16:07:17;24.50;;;18.10;;
51146;SDS011;37207;53.060;18.726;2023-03-24T16:09:54;22.00;;;16.30;;
51146;SDS011;37207;53.060;18.726;2023-03-24T16:12:23;35.00;;;23.00;;
51146;SDS011;37207;53.060;18.726;2023-03-24T16:14:50;138.40;;;58.00;;
51146;SDS011;37207;53.060;18.726;2023-03-24T16:17:16;97.10;;;47.70;;
51146;SDS011;37207;53.060;18.726;2023-03-24T16:19:42;99.20;;;54.50;;
51146;SDS011;37207;53.060;18.726;2023-03-24T16:22:10;121.40;;;54.10;;
51146;SDS011;37207;53.060;18.726;2023-03-24T16:24:37;156.00;;;72.50;;
51146;SDS011;37207;53.060;18.726;2023-03-24T16:27:02;112.90;;;52.70;;
51146;SDS011;37207;53.060;18.726;2023-03-24T16:29:28;110.90;;;52.90;;
51146;SDS011;37207;53.060;18.726;2023-03-24T16:31:55;131.90;;;63.20;;
51146;SDS011;37207;53.060;18.726;2023-03-24T16:34:21;218.70;;;104.60;;
51146;SDS011;37207;53.060;18.726;2023-03-24T16:36:48;129.10;;;61.90;;
51146;SDS011;37207;53.060;18.726;2023-03-24T16:39:17;109.10;;;58.80;;
51146;SDS011;37207;53.060;18.726;2023-03-24T16:41:45;153.50;;;87.80;;
51146;SDS011;37207;53.060;18.726;2023-03-24T16:44:11;105.10;;;61.50;;
51146;SDS011;37207;53.060;18.726;2023-03-24T16:46:38;131.40;;;64.50;;
51146;SDS011;37207;53.060;18.726;2023-03-24T16:49:08;95.70;;;44.50;;
51146;SDS011;37207;53.060;18.726;2023-03-24T16:51:38;36.40;;;18.20;;
51146;SDS011;37207;53.060;18.726;2023-03-24T16:54:05;63.80;;;26.70;;
51146;SDS011;37207;53.060;18.726;2023-03-24T16:56:32;47.10;;;20.50;;
51146;SDS011;37207;53.060;18.726;2023-03-24T16:58:58;45.30;;;23.80;;
51146;SDS011;37207;53.060;18.726;2023-03-24T17:01:28;25.50;;;14.10;;
51146;SDS011;37207;53.060;18.726;2023-03-24T17:03:55;30.00;;;17.30;;
51146;SDS011;37207;53.060;18.726;2023-03-24T17:06:23;33.70;;;19.00;;
51146;SDS011;37207;53.060;18.726;2023-03-24T17:08:50;44.30;;;22.70;;
51146;SDS011;37207;53.060;18.726;2023-03-24T17:11:18;52.50;;;26.50;;
51146;SDS011;37207;53.060;18.726;2023-03-24T17:13:50;40.00;;;22.70;;
51146;SDS011;37207;53.060;18.726;2023-03-24T17:16:16;23.00;;;16.60;;
51146;SDS011;37207;53.060;18.726;2023-03-24T17:18:42;11.90;;;10.60;;
51146;SDS011;37207;53.060;18.726;2023-03-24T17:21:15;16.30;;;10.80;;
51146;SDS011;37207;53.060;18.726;2023-03-24T17:23:43;21.70;;;15.00;;